Time;durP1;ratioP1;P1;durP2;ratioP2;P2;SDS_P1;SDS_P2;PMS_P1;PMS_P2;Temp;Humidity;BMP_temperature;BMP_pressure;BME280_temperature;BME280_humidity;BME280_pressure;Samples;Min_cycle;Max_cycle;Signal;HPM_P1;HPM_P2
2023/09/16 00:01:52;;;;;;;3.53;2.88;;;;;;;;;;4998691;28;20177;-54
2023/09/16 00:04:18;;;;;;;3.78;3.28;;;;;;;;;;4987919;28;20209;-54
2023/09/16 00:06:44;;;;;;;4.28;3.10;;;;;;;;;;5004596;28;20195;-54
2023/09/16 00:09:10;;;;;;;3.67;2.80;;;;;;;;;;4995822;28;20192;-54
2023/09/16 00:11:36;;;;;;;6.10;2.65;;;;;;;;;;4995853;28;20209;-54
2023/09/16 00:14:02;;;;;;;4.72;2.92;;;;;;;;;;4988892;28;20185;-54
2023/09/16 00:16:29;;;;;;;4.72;3.00;;;;;;;;;;4994222;28;20208;-54
2023/09/16 00:18:55;;;;;;;5.15;3.17;;;;;;;;;;4995203;28;20177;-54
2023/09/16 00:21:22;;;;;;;3.38;3.00;;;;;;;;;;4997871;28;20169;-54
2023/09/16 00:23:48;;;;;;;3.83;2.85;;;;;;;;;;4994596;28;20193;-54
2023/09/16 00:26:15;;;;;;;2.97;2.67;;;;;;;;;;5002237;28;20192;-55
2023/09/16 00:28:41;;;;;;;3.30;3.00;;;;;;;;;;4997040;28;20184;-54
2023/09/16 00:31:07;;;;;;;5.38;3.10;;;;;;;;;;4992433;28;20206;-54
2023/09/16 00:33:33;;;;;;;3.53;3.00;;;;;;;;;;4986877;28;20241;-54
2023/09/16 00:35:59;;;;;;;3.47;2.95;;;;;;;;;;4991575;28;20280;-54
2023/09/16 00:38:25;;;;;;;3.83;2.90;;;;;;;;;;4985939;28;20181;-55
2023/09/16 00:40:52;;;;;;;3.08;2.70;;;;;;;;;;4983621;28;20278;-55
2023/09/16 00:43:18;;;;;;;3.90;2.88;;;;;;;;;;4983515;28;20194;-54
2023/09/16 00:45:44;;;;;;;5.03;3.33;;;;;;;;;;4992205;28;20216;-55
2023/09/16 00:48:13;;;;;;;4.18;3.03;;;;;;;;;;4996344;28;20177;-54
2023/09/16 00:50:41;;;;;;;3.13;2.65;;;;;;;;;;4989419;28;20205;-54
2023/09/16 00:53:07;;;;;;;3.63;3.05;;;;;;;;;;4994812;28;20181;-54
2023/09/16 00:55:33;;;;;;;3.80;2.90;;;;;;;;;;4994853;28;20238;-54
2023/09/16 00:58:00;;;;;;;3.50;2.67;;;;;;;;;;4988219;28;20180;-54
2023/09/16 01:00:26;;;;;;;3.75;2.88;;;;;;;;;;5000535;28;20176;-54
2023/09/16 01:02:54;;;;;;;4.03;2.95;;;;;;;;;;4994691;28;20496;-54
2023/09/16 01:05:20;;;;;;;3.58;3.00;;;;;;;;;;4991656;28;20205;-54
2023/09/16 01:07:46;;;;;;;3.60;2.70;;;;;;;;;;4995713;28;20181;-54
2023/09/16 01:10:15;;;;;;;3.88;3.30;;;;;;;;;;4994447;28;20175;-54
2023/09/16 01:12:42;;;;;;;5.32;3.00;;;;;;;;;;4987925;28;20181;-54
2023/09/16 01:15:10;;;;;;;3.97;2.70;;;;;;;;;;4994413;28;20234;-54
2023/09/16 01:17:43;;;;;;;3.30;2.67;;;;;;;;;;5005105;28;20193;-54
2023/09/16 01:20:15;;;;;;;3.33;2.63;;;;;;;;;;4985338;28;20249;-54
2023/09/16 01:22:45;;;;;;;3.35;2.88;;;;;;;;;;4991405;28;20715;-54
2023/09/16 01:25:11;;;;;;;2.78;2.58;;;;;;;;;;4993760;28;20276;-55
2023/09/16 01:27:40;;;;;;;2.65;2.42;;;;;;;;;;5011059;28;20188;-54
2023/09/16 01:30:06;;;;;;;4.78;2.72;;;;;;;;;;4996827;28;20558;-54
2023/09/16 01:32:40;;;;;;;4.20;2.80;;;;;;;;;;4995530;28;20620;-54
2023/09/16 01:35:07;;;;;;;3.17;2.50;;;;;;;;;;4995417;28;20230;-54
2023/09/16 01:37:34;;;;;;;2.75;2.40;;;;;;;;;;4994578;28;20215;-54
2023/09/16 01:40:00;;;;;;;3.67;2.50;;;;;;;;;;4990748;28;20804;-54
2023/09/16 01:42:29;;;;;;;3.75;2.35;;;;;;;;;;4989576;28;20196;-54
2023/09/16 01:44:56;;;;;;;2.53;2.33;;;;;;;;;;4987111;28;20204;-54
2023/09/16 01:47:22;;;;;;;3.25;2.50;;;;;;;;;;4983700;28;20197;-54
2023/09/16 01:49:48;;;;;;;4.78;2.47;;;;;;;;;;5001582;28;20217;-54
2023/09/16 01:52:16;;;;;;;3.67;2.45;;;;;;;;;;4990609;28;20166;-54
2023/09/16 01:54:42;;;;;;;2.50;2.30;;;;;;;;;;4991459;28;20211;-54
2023/09/16 01:57:08;;;;;;;3.35;2.60;;;;;;;;;;5001827;28;20269;-54
2023/09/16 01:59:34;;;;;;;3.85;2.50;;;;;;;;;;4993701;28;20540;-54
2023/09/16 02:02:00;;;;;;;3.65;2.78;;;;;;;;;;4995555;28;20203;-54
2023/09/16 02:04:26;;;;;;;2.92;2.63;;;;;;;;;;4997727;28;20580;-54
2023/09/16 02:06:52;;;;;;;5.03;3.00;;;;;;;;;;4998416;28;20177;-54
2023/09/16 02:09:18;;;;;;;3.05;2.22;;;;;;;;;;4995753;28;20185;-54
2023/09/16 02:11:44;;;;;;;4.55;2.40;;;;;;;;;;4996757;28;20205;-54
2023/09/16 02:14:11;;;;;;;4.43;2.60;;;;;;;;;;4997161;28;20232;-54
2023/09/16 02:16:37;;;;;;;4.18;2.60;;;;;;;;;;4987380;28;20185;-55
2023/09/16 02:19:03;;;;;;;3.90;2.28;;;;;;;;;;4992442;28;20176;-55
2023/09/16 02:21:29;;;;;;;2.75;2.45;;;;;;;;;;4989500;28;20192;-55
2023/09/16 02:23:55;;;;;;;3.05;2.65;;;;;;;;;;4992230;28;20479;-54
2023/09/16 02:26:21;;;;;;;5.10;2.90;;;;;;;;;;5003508;28;20180;-54
2023/09/16 02:28:47;;;;;;;3.67;2.35;;;;;;;;;;5004400;28;20493;-55
2023/09/16 02:31:15;;;;;;;4.00;2.70;;;;;;;;;;4987685;28;20632;-54
2023/09/16 02:33:41;;;;;;;3.65;2.47;;;;;;;;;;4996199;28;20628;-54
2023/09/16 02:36:07;;;;;;;3.67;3.13;;;;;;;;;;4991982;28;20268;-54
2023/09/16 02:38:33;;;;;;;5.38;2.72;;;;;;;;;;4993809;28;20272;-54
2023/09/16 02:41:03;;;;;;;3.15;2.80;;;;;;;;;;4999419;28;20243;-54
2023/09/16 02:43:29;;;;;;;4.78;3.20;;;;;;;;;;4991179;28;20221;-55
2023/09/16 02:45:58;;;;;;;3.35;2.63;;;;;;;;;;4990594;28;20205;-54
2023/09/16 02:48:24;;;;;;;4.47;2.60;;;;;;;;;;4997785;28;20643;-54
2023/09/16 02:50:50;;;;;;;2.58;2.20;;;;;;;;;;4990421;28;20181;-54
2023/09/16 02:53:17;;;;;;;3.40;2.63;;;;;;;;;;4993235;28;20264;-54
2023/09/16 02:55:43;;;;;;;3.25;2.72;;;;;;;;;;4999224;28;20231;-54
2023/09/16 02:58:09;;;;;;;4.68;2.80;;;;;;;;;;4993299;28;20495;-54
2023/09/16 03:00:35;;;;;;;4.40;2.80;;;;;;;;;;4995997;28;20215;-54
2023/09/16 03:03:02;;;;;;;5.10;2.60;;;;;;;;;;4991969;28;20221;-54
2023/09/16 03:05:29;;;;;;;3.35;2.58;;;;;;;;;;4990819;28;20216;-54
2023/09/16 03:07:55;;;;;;;3.22;2.50;;;;;;;;;;4997151;28;20221;-54
2023/09/16 03:10:21;;;;;;;3.95;2.63;;;;;;;;;;4984244;28;20202;-54
2023/09/16 03:12:47;;;;;;;2.45;2.25;;;;;;;;;;4987373;28;20212;-55
2023/09/16 03:15:13;;;;;;;3.80;2.95;;;;;;;;;;4989881;28;20448;-55
2023/09/16 03:17:39;;;;;;;2.78;2.58;;;;;;;;;;4996146;28;20228;-55
2023/09/16 03:20:05;;;;;;;3.13;2.80;;;;;;;;;;4987780;28;20188;-55
2023/09/16 03:22:31;;;;;;;3.45;2.80;;;;;;;;;;4996882;28;20200;-54
2023/09/16 03:24:57;;;;;;;2.55;2.35;;;;;;;;;;4997417;28;20205;-54
2023/09/16 03:27:23;;;;;;;3.38;2.67;;;;;;;;;;5011476;28;20185;-54
2023/09/16 03:29:49;;;;;;;3.35;2.45;;;;;;;;;;4993842;28;20199;-55
2023/09/16 03:32:15;;;;;;;3.00;2.65;;;;;;;;;;4991932;28;20193;-55
2023/09/16 03:34:41;;;;;;;3.28;2.55;;;;;;;;;;4993263;28;20228;-55
2023/09/16 03:37:07;;;;;;;5.18;3.15;;;;;;;;;;5005077;28;20198;-55
2023/09/16 03:39:33;;;;;;;2.55;2.30;;;;;;;;;;4990790;28;20205;-55
2023/09/16 03:41:59;;;;;;;2.88;2.58;;;;;;;;;;4994325;28;20272;-55
2023/09/16 03:44:25;;;;;;;2.80;2.60;;;;;;;;;;4990176;28;20811;-55
2023/09/16 03:46:51;;;;;;;2.70;2.50;;;;;;;;;;4995474;28;20181;-54
2023/09/16 03:49:17;;;;;;;5.43;2.22;;;;;;;;;;4994315;28;20185;-55
2023/09/16 03:51:43;;;;;;;4.18;2.58;;;;;;;;;;4991513;28;20189;-55
2023/09/16 03:54:09;;;;;;;3.13;2.50;;;;;;;;;;4995472;28;20184;-55
2023/09/16 03:56:35;;;;;;;2.97;2.45;;;;;;;;;;5006479;28;20643;-55
2023/09/16 03:59:01;;;;;;;3.17;2.60;;;;;;;;;;5007069;28;22098;-54
2023/09/16 04:01:27;;;;;;;3.28;2.60;;;;;;;;;;4991648;28;20263;-54
2023/09/16 04:03:54;;;;;;;3.20;2.53;;;;;;;;;;4987948;28;20196;-54
2023/09/16 04:06:20;;;;;;;2.63;2.42;;;;;;;;;;4996961;28;20200;-54
2023/09/16 04:08:46;;;;;;;3.15;2.42;;;;;;;;;;4995523;28;20173;-54
2023/09/16 04:11:13;;;;;;;3.35;2.38;;;;;;;;;;4993140;28;20552;-54
2023/09/16 04:13:39;;;;;;;2.50;2.30;;;;;;;;;;4988743;28;20294;-54
2023/09/16 04:16:05;;;;;;;2.92;2.60;;;;;;;;;;4988319;28;20483;-54
2023/09/16 04:18:31;;;;;;;3.25;2.28;;;;;;;;;;4991639;28;20240;-54
2023/09/16 04:20:57;;;;;;;3.35;2.30;;;;;;;;;;4986567;28;20182;-54
2023/09/16 04:23:23;;;;;;;2.45;2.00;;;;;;;;;;4990622;28;20221;-54
2023/09/16 04:25:56;;;;;;;2.60;2.05;;;;;;;;;;4997339;28;20208;-54
2023/09/16 04:28:22;;;;;;;2.63;2.28;;;;;;;;;;5007100;28;20177;-54
2023/09/16 04:30:49;;;;;;;3.05;1.80;;;;;;;;;;4990221;28;20643;-54
2023/09/16 04:33:15;;;;;;;3.28;2.90;;;;;;;;;;4992511;28;20215;-54
2023/09/16 04:35:48;;;;;;;2.60;2.08;;;;;;;;;;4994137;28;20192;-54
2023/09/16 04:38:14;;;;;;;2.28;2.05;;;;;;;;;;4995801;28;20200;-55
2023/09/16 04:40:44;;;;;;;2.97;2.35;;;;;;;;;;4994035;28;20598;-54
2023/09/16 04:43:12;;;;;;;3.90;2.40;;;;;;;;;;4989232;28;20247;-54
2023/09/16 04:45:37;;;;;;;3.00;2.50;;;;;;;;;;4985740;28;20616;-54
2023/09/16 04:48:04;;;;;;;5.43;2.42;;;;;;;;;;4982113;28;20189;-54
2023/09/16 04:50:31;;;;;;;2.67;2.47;;;;;;;;;;4987143;28;20181;-54
2023/09/16 04:52:58;;;;;;;2.80;2.17;;;;;;;;;;4989106;28;20584;-54
2023/09/16 04:55:24;;;;;;;2.83;2.15;;;;;;;;;;4985451;28;20215;-54
2023/09/16 04:57:50;;;;;;;2.40;2.20;;;;;;;;;;4991920;28;20186;-54
2023/09/16 05:00:17;;;;;;;4.20;2.60;;;;;;;;;;4985308;28;20281;-54
2023/09/16 05:02:48;;;;;;;2.78;2.20;;;;;;;;;;4988691;28;20177;-54
2023/09/16 05:05:13;;;;;;;3.25;2.03;;;;;;;;;;4983265;28;20196;-54
2023/09/16 05:07:39;;;;;;;2.65;2.30;;;;;;;;;;4980257;28;20192;-54
2023/09/16 05:10:05;;;;;;;2.38;2.15;;;;;;;;;;4983282;28;20188;-54
2023/09/16 05:12:31;;;;;;;2.40;2.20;;;;;;;;;;4988679;28;20193;-54
2023/09/16 05:14:57;;;;;;;2.22;2.03;;;;;;;;;;4995663;28;20457;-55
2023/09/16 05:17:23;;;;;;;2.88;2.40;;;;;;;;;;4985220;28;20192;-55
2023/09/16 05:19:49;;;;;;;3.25;2.42;;;;;;;;;;4986319;28;20182;-55
2023/09/16 05:22:15;;;;;;;3.00;2.42;;;;;;;;;;4983474;28;20197;-55
2023/09/16 05:24:41;;;;;;;2.88;2.30;;;;;;;;;;4989908;28;20212;-55
2023/09/16 05:27:07;;;;;;;3.95;2.25;;;;;;;;;;4999503;28;20181;-55
2023/09/16 05:29:33;;;;;;;2.05;1.85;;;;;;;;;;4996607;28;20189;-55
2023/09/16 05:31:59;;;;;;;2.53;2.33;;;;;;;;;;4989178;28;20189;-55
2023/09/16 05:34:25;;;;;;;3.05;2.20;;;;;;;;;;4990149;28;20177;-55
2023/09/16 05:36:51;;;;;;;2.50;2.10;;;;;;;;;;4985336;28;20455;-55
2023/09/16 05:39:17;;;;;;;4.90;1.95;;;;;;;;;;4990796;28;20184;-55
2023/09/16 05:41:43;;;;;;;2.40;2.20;;;;;;;;;;4986681;28;20247;-55
2023/09/16 05:44:09;;;;;;;3.72;2.60;;;;;;;;;;4991847;28;20204;-54
2023/09/16 05:46:35;;;;;;;3.05;2.10;;;;;;;;;;4984128;28;20319;-53
2023/09/16 05:49:09;;;;;;;2.03;1.80;;;;;;;;;;4989075;28;20264;-55
2023/09/16 05:51:34;;;;;;;7.63;2.25;;;;;;;;;;4998699;28;20291;-55
2023/09/16 05:54:00;;;;;;;2.97;1.75;;;;;;;;;;4998490;28;20268;-55
2023/09/16 05:56:27;;;;;;;4.30;2.10;;;;;;;;;;5002244;28;20498;-55
2023/09/16 05:58:53;;;;;;;3.70;2.10;;;;;;;;;;4993523;28;20178;-55
2023/09/16 06:01:19;;;;;;;4.22;2.20;;;;;;;;;;5002565;28;20177;-55
2023/09/16 06:03:45;;;;;;;5.55;3.13;;;;;;;;;;4989556;28;20187;-55
2023/09/16 06:06:11;;;;;;;2.90;2.60;;;;;;;;;;5011395;28;20602;-55
2023/09/16 06:08:37;;;;;;;2.80;2.50;;;;;;;;;;4996406;28;20188;-55
2023/09/16 06:11:03;;;;;;;3.13;2.70;;;;;;;;;;4993761;28;20541;-55
2023/09/16 06:13:29;;;;;;;3.08;2.78;;;;;;;;;;4985175;28;20303;-55
2023/09/16 06:15:55;;;;;;;3.67;2.95;;;;;;;;;;4983603;28;20514;-55
2023/09/16 06:18:21;;;;;;;4.03;2.78;;;;;;;;;;4991646;28;20449;-55
2023/09/16 06:20:47;;;;;;;3.22;2.88;;;;;;;;;;5000492;28;20194;-55
2023/09/16 06:23:14;;;;;;;3.25;2.83;;;;;;;;;;4991338;28;20284;-55
2023/09/16 06:25:40;;;;;;;5.40;3.78;;;;;;;;;;4996572;28;20211;-54
2023/09/16 06:28:06;;;;;;;4.35;3.28;;;;;;;;;;5002602;28;20182;-55
2023/09/16 06:30:32;;;;;;;5.78;3.28;;;;;;;;;;5000880;28;20249;-55
2023/09/16 06:32:58;;;;;;;3.90;3.30;;;;;;;;;;4991164;28;20561;-55
2023/09/16 06:35:24;;;;;;;5.28;3.25;;;;;;;;;;4988579;28;20196;-55
2023/09/16 06:37:50;;;;;;;4.05;3.17;;;;;;;;;;4983152;28;20192;-55
2023/09/16 06:40:17;;;;;;;13.05;3.45;;;;;;;;;;5001847;28;20192;-55
2023/09/16 06:42:43;;;;;;;7.00;3.50;;;;;;;;;;4992522;28;20197;-55
2023/09/16 06:45:09;;;;;;;9.07;3.58;;;;;;;;;;4995599;28;20208;-55
2023/09/16 06:47:35;;;;;;;11.90;4.07;;;;;;;;;;4996664;28;20301;-55
2023/09/16 06:50:01;;;;;;;10.48;3.92;;;;;;;;;;5011747;28;20598;-55
2023/09/16 06:52:28;;;;;;;8.60;3.60;;;;;;;;;;4996759;28;20585;-55
2023/09/16 06:54:54;;;;;;;6.28;3.80;;;;;;;;;;4990562;28;20251;-55
2023/09/16 06:57:20;;;;;;;7.40;3.70;;;;;;;;;;4997176;28;20568;-55
2023/09/16 06:59:47;;;;;;;7.80;3.42;;;;;;;;;;5004230;28;20231;-55
2023/09/16 07:02:13;;;;;;;8.18;3.88;;;;;;;;;;5006293;28;20177;-55
2023/09/16 07:04:40;;;;;;;4.22;2.88;;;;;;;;;;5002254;28;20208;-55
2023/09/16 07:07:06;;;;;;;3.83;2.92;;;;;;;;;;4984942;28;20196;-55
2023/09/16 07:09:32;;;;;;;7.95;3.60;;;;;;;;;;4994507;28;20604;-55
2023/09/16 07:11:59;;;;;;;5.82;3.42;;;;;;;;;;4997578;28;20185;-55
2023/09/16 07:14:25;;;;;;;5.70;3.13;;;;;;;;;;4997330;28;20169;-55
2023/09/16 07:16:51;;;;;;;4.15;2.90;;;;;;;;;;4998073;28;20444;-55
2023/09/16 07:19:17;;;;;;;5.03;3.33;;;;;;;;;;4996723;28;20189;-55
2023/09/16 07:21:43;;;;;;;7.50;3.10;;;;;;;;;;4993068;28;20199;-55
2023/09/16 07:24:09;;;;;;;6.60;3.45;;;;;;;;;;5002117;28;20235;-55
2023/09/16 07:26:35;;;;;;;3.40;3.10;;;;;;;;;;5004339;28;20488;-55
2023/09/16 07:29:01;;;;;;;6.85;3.00;;;;;;;;;;5016768;28;20291;-55
2023/09/16 07:31:27;;;;;;;4.57;3.60;;;;;;;;;;4997157;28;20220;-55
2023/09/16 07:33:53;;;;;;;4.93;3.25;;;;;;;;;;4997570;28;20185;-55
2023/09/16 07:36:19;;;;;;;3.72;3.10;;;;;;;;;;4997714;28;20489;-54
2023/09/16 07:38:45;;;;;;;2.88;2.67;;;;;;;;;;4989845;28;20197;-55
2023/09/16 07:41:11;;;;;;;3.00;2.65;;;;;;;;;;4994765;28;20185;-55
2023/09/16 07:43:37;;;;;;;6.22;3.30;;;;;;;;;;4996822;28;20185;-55
2023/09/16 07:46:03;;;;;;;3.38;2.63;;;;;;;;;;4997353;28;20201;-55
2023/09/16 07:48:29;;;;;;;3.13;2.70;;;;;;;;;;4993798;28;20191;-55
2023/09/16 07:50:55;;;;;;;4.18;3.13;;;;;;;;;;4995994;28;20190;-55
2023/09/16 07:53:21;;;;;;;3.22;2.58;;;;;;;;;;5005970;28;20184;-55
2023/09/16 07:55:47;;;;;;;2.90;2.60;;;;;;;;;;5004781;28;20208;-55
2023/09/16 07:58:13;;;;;;;3.90;2.42;;;;;;;;;;5000337;28;20496;-55
2023/09/16 08:00:39;;;;;;;4.05;2.72;;;;;;;;;;4996448;28;20184;-55
2023/09/16 08:03:05;;;;;;;2.90;2.60;;;;;;;;;;4995488;28;20200;-55
2023/09/16 08:05:31;;;;;;;2.90;2.60;;;;;;;;;;5015341;28;20205;-55
2023/09/16 08:07:57;;;;;;;3.22;2.40;;;;;;;;;;4990462;28;20618;-54
2023/09/16 08:10:23;;;;;;;4.53;2.50;;;;;;;;;;4992597;28;20178;-55
2023/09/16 08:12:48;;;;;;;4.03;2.45;;;;;;;;;;4996576;28;20581;-54
2023/09/16 08:15:14;;;;;;;3.30;3.00;;;;;;;;;;4996731;28;20185;-55
2023/09/16 08:17:40;;;;;;;3.10;2.80;;;;;;;;;;4994177;28;20452;-54
2023/09/16 08:20:07;;;;;;;4.40;2.38;;;;;;;;;;4991208;28;20191;-54
2023/09/16 08:22:33;;;;;;;4.80;2.58;;;;;;;;;;4996002;28;20196;-54
2023/09/16 08:24:59;;;;;;;2.47;2.28;;;;;;;;;;5007965;28;20618;-54
2023/09/16 08:27:28;;;;;;;4.70;2.20;;;;;;;;;;5000492;28;20232;-54
2023/09/16 08:29:54;;;;;;;4.75;2.33;;;;;;;;;;4987742;28;20456;-54
2023/09/16 08:32:28;;;;;;;3.95;2.28;;;;;;;;;;4990330;28;20174;-54
2023/09/16 08:34:54;;;;;;;4.20;2.63;;;;;;;;;;4995416;28;20316;-54
2023/09/16 08:37:20;;;;;;;3.33;2.50;;;;;;;;;;4992277;28;20272;-54
2023/09/16 08:39:46;;;;;;;6.20;3.00;;;;;;;;;;4994969;28;20552;-54
2023/09/16 08:42:15;;;;;;;2.75;2.38;;;;;;;;;;5003044;28;20548;-54
2023/09/16 08:44:44;;;;;;;4.25;2.72;;;;;;;;;;5002565;28;20193;-54
2023/09/16 08:47:12;;;;;;;3.97;3.05;;;;;;;;;;4989465;28;20189;-54
2023/09/16 08:49:41;;;;;;;2.88;2.67;;;;;;;;;;4986831;28;20443;-54
2023/09/16 08:52:10;;;;;;;5.43;2.42;;;;;;;;;;4988821;28;20209;-54
2023/09/16 08:54:36;;;;;;;3.38;2.67;;;;;;;;;;4988653;28;20228;-54
2023/09/16 08:57:02;;;;;;;4.35;2.83;;;;;;;;;;5000585;28;20181;-54
2023/09/16 08:59:29;;;;;;;2.63;2.40;;;;;;;;;;5014452;28;20192;-53
2023/09/16 09:01:55;;;;;;;5.05;2.35;;;;;;;;;;5008304;28;20222;-53
2023/09/16 09:04:21;;;;;;;4.03;2.58;;;;;;;;;;4992998;28;20216;-53
2023/09/16 09:06:47;;;;;;;3.50;2.50;;;;;;;;;;4994275;28;20177;-54
2023/09/16 09:09:13;;;;;;;4.80;2.33;;;;;;;;;;4995706;28;20185;-54
2023/09/16 09:11:39;;;;;;;3.53;2.53;;;;;;;;;;4995014;28;20455;-54
2023/09/16 09:14:09;;;;;;;4.45;2.67;;;;;;;;;;4994721;28;20905;-53
2023/09/16 09:16:36;;;;;;;3.38;2.70;;;;;;;;;;4995232;28;20177;-53
2023/09/16 09:19:02;;;;;;;3.13;2.60;;;;;;;;;;4988683;28;20189;-53
2023/09/16 09:21:29;;;;;;;3.35;2.47;;;;;;;;;;4996848;28;20239;-53
2023/09/16 09:23:57;;;;;;;2.85;2.60;;;;;;;;;;5003984;28;20468;-53
2023/09/16 09:26:25;;;;;;;2.67;2.47;;;;;;;;;;4998115;28;20224;-53
2023/09/16 09:28:51;;;;;;;3.25;2.45;;;;;;;;;;5015086;28;20231;-54
2023/09/16 09:31:17;;;;;;;2.75;2.40;;;;;;;;;;4997464;28;20181;-54
2023/09/16 09:33:44;;;;;;;2.95;2.30;;;;;;;;;;4990888;28;20200;-54
2023/09/16 09:36:12;;;;;;;2.58;2.35;;;;;;;;;;4989452;28;20181;-54
2023/09/16 09:38:38;;;;;;;4.55;2.58;;;;;;;;;;4995379;28;20201;-54
2023/09/16 09:41:04;;;;;;;3.05;2.47;;;;;;;;;;5000561;28;20220;-54
2023/09/16 09:43:31;;;;;;;3.45;3.15;;;;;;;;;;4991451;28;20572;-54
2023/09/16 09:45:57;;;;;;;2.80;2.35;;;;;;;;;;4989955;28;20201;-54
2023/09/16 09:48:23;;;;;;;4.18;2.80;;;;;;;;;;4994865;28;20173;-54
2023/09/16 09:50:49;;;;;;;3.17;2.88;;;;;;;;;;4988390;28;20612;-54
2023/09/16 09:53:15;;;;;;;2.55;2.35;;;;;;;;;;5007085;28;20184;-54
2023/09/16 09:55:41;;;;;;;2.92;2.63;;;;;;;;;;4985000;28;20210;-54
2023/09/16 09:58:07;;;;;;;2.78;2.40;;;;;;;;;;4982673;28;20182;-54
2023/09/16 10:00:33;;;;;;;4.88;2.63;;;;;;;;;;4993329;28;20648;-54
2023/09/16 10:03:00;;;;;;;2.67;2.45;;;;;;;;;;4993746;28;20197;-54
2023/09/16 10:05:26;;;;;;;2.40;2.03;;;;;;;;;;4999759;28;20288;-53
2023/09/16 10:07:53;;;;;;;2.40;2.15;;;;;;;;;;4988639;28;20189;-53
2023/09/16 10:10:22;;;;;;;3.65;2.00;;;;;;;;;;4977890;28;20187;-53
2023/09/16 10:12:51;;;;;;;2.25;2.08;;;;;;;;;;5003074;28;20178;-53
2023/09/16 10:15:17;;;;;;;2.20;2.00;;;;;;;;;;4993749;28;20541;-53
2023/09/16 10:17:45;;;;;;;2.05;1.90;;;;;;;;;;4996138;28;20456;-53
2023/09/16 10:20:16;;;;;;;1.92;1.83;;;;;;;;;;4995687;28;20193;-53
2023/09/16 10:22:42;;;;;;;2.35;2.15;;;;;;;;;;4994510;28;20335;-53
2023/09/16 10:25:09;;;;;;;2.30;2.15;;;;;;;;;;4990777;28;20213;-53
2023/09/16 10:27:40;;;;;;;2.10;1.90;;;;;;;;;;5006106;28;20189;-53
2023/09/16 10:30:07;;;;;;;2.38;2.17;;;;;;;;;;5011903;28;20173;-53
2023/09/16 10:32:33;;;;;;;2.22;1.90;;;;;;;;;;4994440;28;20639;-53
2023/09/16 10:35:01;;;;;;;2.55;2.33;;;;;;;;;;4994036;28;20188;-53
2023/09/16 10:37:28;;;;;;;2.53;2.33;;;;;;;;;;4995074;28;20187;-53
2023/09/16 10:39:55;;;;;;;2.25;2.05;;;;;;;;;;4989406;28;20197;-53
2023/09/16 10:42:22;;;;;;;2.70;2.03;;;;;;;;;;4997976;28;20184;-53
2023/09/16 10:44:48;;;;;;;3.53;2.25;;;;;;;;;;5018256;28;20283;-53
2023/09/16 10:47:17;;;;;;;2.28;2.08;;;;;;;;;;5000035;28;20268;-53
2023/09/16 10:49:47;;;;;;;2.20;2.05;;;;;;;;;;4999535;28;20200;-54
2023/09/16 10:52:16;;;;;;;2.53;2.25;;;;;;;;;;4987798;28;20204;-53
2023/09/16 10:54:46;;;;;;;2.85;2.00;;;;;;;;;;4995263;28;20223;-53
2023/09/16 10:57:17;;;;;;;3.03;2.40;;;;;;;;;;4994788;28;20274;-53
2023/09/16 10:59:44;;;;;;;2.17;1.98;;;;;;;;;;4991749;28;20216;-53
2023/09/16 11:02:18;;;;;;;1.88;1.77;;;;;;;;;;4990446;28;20189;-53
2023/09/16 11:04:44;;;;;;;3.85;2.13;;;;;;;;;;5004069;28;20207;-53
2023/09/16 11:07:10;;;;;;;3.05;1.75;;;;;;;;;;5006814;28;20184;-53
2023/09/16 11:09:37;;;;;;;2.60;2.20;;;;;;;;;;4983893;28;20191;-53
2023/09/16 11:12:03;;;;;;;2.08;1.95;;;;;;;;;;4983408;28;20177;-53
2023/09/16 11:14:29;;;;;;;2.20;2.00;;;;;;;;;;4988469;28;20212;-53
2023/09/16 11:16:55;;;;;;;3.38;2.33;;;;;;;;;;4995142;28;20576;-53
2023/09/16 11:19:25;;;;;;;2.90;2.25;;;;;;;;;;4987076;28;20215;-53
2023/09/16 11:21:54;;;;;;;3.78;2.17;;;;;;;;;;4991143;28;20556;-53
2023/09/16 11:24:20;;;;;;;3.63;2.22;;;;;;;;;;5004433;28;20464;-53
2023/09/16 11:26:47;;;;;;;2.17;2.00;;;;;;;;;;4994496;28;20596;-53
2023/09/16 11:29:16;;;;;;;2.95;1.85;;;;;;;;;;4998989;28;20184;-53
2023/09/16 11:31:42;;;;;;;4.88;2.55;;;;;;;;;;4999815;28;20883;-53
2023/09/16 11:34:10;;;;;;;2.08;1.90;;;;;;;;;;4997281;28;20591;-53
2023/09/16 11:36:36;;;;;;;2.30;1.80;;;;;;;;;;4981445;28;20218;-53
2023/09/16 11:39:11;;;;;;;4.13;2.30;;;;;;;;;;5005679;28;20246;-53
2023/09/16 11:41:37;;;;;;;1.85;1.60;;;;;;;;;;4997415;28;20193;-53
2023/09/16 11:44:04;;;;;;;2.92;2.42;;;;;;;;;;5017136;28;20184;-53
2023/09/16 11:46:31;;;;;;;1.92;1.83;;;;;;;;;;4991820;28;20612;-53
2023/09/16 11:48:57;;;;;;;2.10;1.90;;;;;;;;;;5008302;28;20528;-53
2023/09/16 11:51:24;;;;;;;3.60;2.10;;;;;;;;;;5000427;28;20173;-53
2023/09/16 11:53:51;;;;;;;2.30;2.10;;;;;;;;;;4990376;28;20597;-53
2023/09/16 11:56:18;;;;;;;2.20;2.00;;;;;;;;;;4996378;28;20452;-53
2023/09/16 11:58:45;;;;;;;3.65;2.17;;;;;;;;;;4993827;28;20243;-53
2023/09/16 12:01:11;;;;;;;2.40;1.80;;;;;;;;;;5005910;28;20207;-53
2023/09/16 12:03:37;;;;;;;1.83;1.70;;;;;;;;;;5003888;28;20268;-53
2023/09/16 12:06:03;;;;;;;3.05;1.90;;;;;;;;;;5003806;28;20331;-53
2023/09/16 12:08:30;;;;;;;2.50;2.15;;;;;;;;;;4992183;28;20192;-53
2023/09/16 12:10:56;;;;;;;2.17;1.98;;;;;;;;;;4995629;28;20208;-52
2023/09/16 12:13:26;;;;;;;3.65;2.30;;;;;;;;;;5002344;28;20252;-52
2023/09/16 12:15:52;;;;;;;2.70;2.17;;;;;;;;;;5001600;28;20185;-52
2023/09/16 12:18:18;;;;;;;3.33;2.17;;;;;;;;;;4995683;28;20608;-52
2023/09/16 12:20:44;;;;;;;2.03;1.85;;;;;;;;;;5003422;28;20186;-52
2023/09/16 12:23:10;;;;;;;3.05;1.98;;;;;;;;;;4996357;28;20198;-52
2023/09/16 12:25:40;;;;;;;5.35;1.90;;;;;;;;;;4996065;28;20224;-52
2023/09/16 12:28:06;;;;;;;2.42;2.20;;;;;;;;;;4996152;28;20176;-52
2023/09/16 12:30:32;;;;;;;3.05;2.10;;;;;;;;;;5002838;28;20188;-52
2023/09/16 12:32:58;;;;;;;2.90;2.13;;;;;;;;;;5006172;28;20452;-52
2023/09/16 12:35:24;;;;;;;2.60;2.38;;;;;;;;;;5003789;28;20205;-52
2023/09/16 12:37:50;;;;;;;2.45;2.03;;;;;;;;;;4993472;28;20200;-52
2023/09/16 12:40:16;;;;;;;2.28;2.05;;;;;;;;;;5002293;28;20181;-52
2023/09/16 12:42:42;;;;;;;2.15;1.95;;;;;;;;;;5003509;28;20591;-52
2023/09/16 12:45:08;;;;;;;2.13;1.92;;;;;;;;;;5002379;28;20200;-52
2023/09/16 12:47:34;;;;;;;3.03;1.98;;;;;;;;;;5005059;28;20560;-52
2023/09/16 12:50:00;;;;;;;2.10;1.90;;;;;;;;;;5004685;28;20187;-52
2023/09/16 12:52:27;;;;;;;2.50;2.10;;;;;;;;;;4999200;28;20178;-52
2023/09/16 12:54:53;;;;;;;2.28;2.08;;;;;;;;;;4996696;28;20196;-52
2023/09/16 12:57:19;;;;;;;2.38;1.92;;;;;;;;;;4993546;28;20607;-52
2023/09/16 12:59:46;;;;;;;4.90;3.05;;;;;;;;;;4995398;28;20550;-52
2023/09/16 13:02:12;;;;;;;5.82;3.67;;;;;;;;;;4998879;28;20191;-52
2023/09/16 13:04:38;;;;;;;7.30;4.35;;;;;;;;;;5005612;28;20189;-52
2023/09/16 13:07:04;;;;;;;9.45;6.05;;;;;;;;;;4991268;28;20185;-52
2023/09/16 13:09:30;;;;;;;8.82;5.57;;;;;;;;;;5000307;28;20264;-52
2023/09/16 13:11:57;;;;;;;6.68;4.60;;;;;;;;;;4997517;28;20168;-52
2023/09/16 13:14:25;;;;;;;8.82;5.15;;;;;;;;;;4999990;28;20208;-52
2023/09/16 13:16:51;;;;;;;8.45;5.60;;;;;;;;;;4995080;28;20614;-52
2023/09/16 13:19:20;;;;;;;8.73;5.05;;;;;;;;;;4986220;28;20260;-52
2023/09/16 13:21:47;;;;;;;8.77;4.93;;;;;;;;;;4994992;28;20185;-52
2023/09/16 13:24:13;;;;;;;6.75;4.70;;;;;;;;;;5003628;28;20193;-52
2023/09/16 13:26:53;;;;;;;5.78;3.85;;;;;;;;;;4998855;28;20219;-52
2023/09/16 13:29:19;;;;;;;8.32;5.10;;;;;;;;;;4988667;28;20184;-52
2023/09/16 13:31:45;;;;;;;7.10;3.78;;;;;;;;;;5009643;28;20188;-52
2023/09/16 13:34:11;;;;;;;3.65;3.10;;;;;;;;;;4988455;28;20260;-52
2023/09/16 13:36:38;;;;;;;5.20;3.67;;;;;;;;;;4985150;28;20292;-52
2023/09/16 13:39:04;;;;;;;8.40;4.60;;;;;;;;;;4999013;28;20181;-52
2023/09/16 13:41:30;;;;;;;5.78;3.92;;;;;;;;;;5002799;28;20472;-52
2023/09/16 13:43:56;;;;;;;6.10;3.42;;;;;;;;;;5005353;28;20196;-52
2023/09/16 13:46:25;;;;;;;3.65;3.30;;;;;;;;;;4999454;28;20205;-53
2023/09/16 13:48:51;;;;;;;3.60;2.92;;;;;;;;;;4997594;28;20628;-53
2023/09/16 13:51:17;;;;;;;4.25;3.13;;;;;;;;;;4999418;28;20259;-52
2023/09/16 13:53:43;;;;;;;4.28;3.20;;;;;;;;;;4996554;28;20182;-52
2023/09/16 13:56:10;;;;;;;5.97;3.33;;;;;;;;;;5001651;28;20610;-53
2023/09/16 13:58:36;;;;;;;4.60;3.35;;;;;;;;;;4998018;28;20557;-52
2023/09/16 14:01:02;;;;;;;4.50;3.60;;;;;;;;;;4994223;28;20197;-52
2023/09/16 14:03:28;;;;;;;4.57;3.47;;;;;;;;;;5004715;28;20185;-52
2023/09/16 14:05:54;;;;;;;4.20;3.42;;;;;;;;;;5003333;28;20212;-52
2023/09/16 14:08:20;;;;;;;5.70;3.20;;;;;;;;;;5003449;28;20199;-52
2023/09/16 14:10:46;;;;;;;3.92;3.05;;;;;;;;;;4995519;28;20194;-52
2023/09/16 14:13:12;;;;;;;5.60;3.17;;;;;;;;;;4995567;28;20424;-52
2023/09/16 14:15:38;;;;;;;3.30;2.90;;;;;;;;;;5002292;28;20189;-52
2023/09/16 14:18:05;;;;;;;3.50;2.90;;;;;;;;;;5008657;28;20302;-52
2023/09/16 14:20:32;;;;;;;2.97;2.67;;;;;;;;;;4995994;28;20181;-52
2023/09/16 14:22:58;;;;;;;3.30;3.00;;;;;;;;;;4986936;28;20193;-52
2023/09/16 14:25:26;;;;;;;5.25;2.90;;;;;;;;;;5006410;28;20216;-52
2023/09/16 14:27:52;;;;;;;5.68;2.92;;;;;;;;;;5018121;28;20263;-52
2023/09/16 14:30:18;;;;;;;3.60;2.90;;;;;;;;;;4999845;28;20176;-52
2023/09/16 14:32:47;;;;;;;5.03;2.70;;;;;;;;;;5005272;28;20275;-52
2023/09/16 14:35:17;;;;;;;5.90;2.80;;;;;;;;;;5013249;28;20212;-52
2023/09/16 14:37:44;;;;;;;3.55;2.55;;;;;;;;;;5018235;28;20184;-52
2023/09/16 14:40:10;;;;;;;3.63;2.47;;;;;;;;;;4984360;28;20671;-52